FYLZ/LUD METAR and TAF weather

Enter ICAO airport designator
Station Type Date Time Source
FYLZ METAR 2020/07/10 16:00 UTC NOAA

FYLZ 101600Z AUTO 33015KT //// // ////// 14/13 Q1015


Station Type Date Time Source
FYLZ Decoded METAR 2020/07/10 16:00 UTC NOAA

Luderitz / Diaz Point, Namibia (FYLZ) 26-41S 015-15E
Jul 10, 2020 - 12:00 PM EDT / 2020.07.10 1600 UTC
Wind: from the NNW (330 degrees) at 17 MPH (15 KT):0
Temperature: 57 F (14 C)
Dew Point: 55 F (13 C)
Relative Humidity: 93%
Pressure (altimeter): 29.97 in. Hg (1015 hPa)
ob: FYLZ 101600Z AUTO 33015KT //// // ////// 14/13 Q1015
cycle: 16

Station Type Date Time Source
FYLZ TAF 2014/11/15 15:19 UTC NOAA

TAF FYLZ 151400Z 1515/1524 18015G28KT CAVOK
BECMG 1518/1520 16020KT

Example: see airport list